sensor_id;sensor_type;location;lat;lon;timestamp;P1;durP1;ratioP1;P2;durP2;ratioP2
32641;SDS011;19323;56.072;9.698;2022-08-19T00:01:22;2.72;;;2.10;;
32641;SDS011;19323;56.072;9.698;2022-08-19T00:03:59;2.53;;;2.33;;
32641;SDS011;19323;56.072;9.698;2022-08-19T00:06:29;3.25;;;2.70;;
32641;SDS011;19323;56.072;9.698;2022-08-19T00:08:56;2.70;;;2.50;;
32641;SDS011;19323;56.072;9.698;2022-08-19T00:11:24;2.78;;;2.22;;
32641;SDS011;19323;56.072;9.698;2022-08-19T00:13:54;3.67;;;2.90;;
32641;SDS011;19323;56.072;9.698;2022-08-19T00:16:23;3.00;;;2.70;;
32641;SDS011;19323;56.072;9.698;2022-08-19T00:18:52;3.42;;;3.13;;
32641;SDS011;19323;56.072;9.698;2022-08-19T00:21:22;4.28;;;2.88;;
32641;SDS011;19323;56.072;9.698;2022-08-19T00:23:50;3.38;;;2.90;;
32641;SDS011;19323;56.072;9.698;2022-08-19T00:26:17;2.65;;;2.40;;
32641;SDS011;19323;56.072;9.698;2022-08-19T00:28:43;2.63;;;2.42;;
32641;SDS011;19323;56.072;9.698;2022-08-19T00:31:10;4.20;;;3.05;;
32641;SDS011;19323;56.072;9.698;2022-08-19T00:33:37;3.45;;;2.70;;
32641;SDS011;19323;56.072;9.698;2022-08-19T00:36:05;3.38;;;3.08;;
32641;SDS011;19323;56.072;9.698;2022-08-19T00:38:33;4.40;;;3.00;;
32641;SDS011;19323;56.072;9.698;2022-08-19T00:41:03;5.53;;;2.80;;
32641;SDS011;19323;56.072;9.698;2022-08-19T00:43:31;4.85;;;2.50;;
32641;SDS011;19323;56.072;9.698;2022-08-19T00:45:58;3.78;;;2.65;;
32641;SDS011;19323;56.072;9.698;2022-08-19T00:48:25;3.65;;;3.00;;
32641;SDS011;19323;56.072;9.698;2022-08-19T00:50:52;2.75;;;2.55;;
32641;SDS011;19323;56.072;9.698;2022-08-19T00:53:22;4.50;;;2.60;;
32641;SDS011;19323;56.072;9.698;2022-08-19T00:55:53;6.05;;;3.08;;
32641;SDS011;19323;56.072;9.698;2022-08-19T00:58:22;3.20;;;2.90;;
32641;SDS011;19323;56.072;9.698;2022-08-19T01:00:53;3.88;;;3.17;;
32641;SDS011;19323;56.072;9.698;2022-08-19T01:03:21;3.80;;;2.78;;
32641;SDS011;19323;56.072;9.698;2022-08-19T01:05:48;3.45;;;3.15;;
32641;SDS011;19323;56.072;9.698;2022-08-19T01:08:17;6.15;;;3.50;;
32641;SDS011;19323;56.072;9.698;2022-08-19T01:10:50;4.72;;;2.63;;
32641;SDS011;19323;56.072;9.698;2022-08-19T01:15:50;3.97;;;2.97;;
32641;SDS011;19323;56.072;9.698;2022-08-19T01:18:19;3.95;;;3.50;;
32641;SDS011;19323;56.072;9.698;2022-08-19T01:20:47;3.55;;;3.22;;
32641;SDS011;19323;56.072;9.698;2022-08-19T01:23:14;3.15;;;2.67;;
32641;SDS011;19323;56.072;9.698;2022-08-19T01:25:46;3.58;;;3.17;;
32641;SDS011;19323;56.072;9.698;2022-08-19T01:28:23;3.65;;;3.03;;
32641;SDS011;19323;56.072;9.698;2022-08-19T01:31:05;4.32;;;3.50;;
32641;SDS011;19323;56.072;9.698;2022-08-19T01:33:33;4.65;;;3.03;;
32641;SDS011;19323;56.072;9.698;2022-08-19T01:36:04;3.20;;;2.90;;
32641;SDS011;19323;56.072;9.698;2022-08-19T01:38:37;3.70;;;3.30;;
32641;SDS011;19323;56.072;9.698;2022-08-19T01:41:10;3.38;;;3.08;;
32641;SDS011;19323;56.072;9.698;2022-08-19T01:43:38;4.28;;;3.35;;
32641;SDS011;19323;56.072;9.698;2022-08-19T01:46:24;3.65;;;3.17;;
32641;SDS011;19323;56.072;9.698;2022-08-19T01:48:51;3.55;;;3.10;;
32641;SDS011;19323;56.072;9.698;2022-08-19T01:51:17;3.55;;;3.25;;
32641;SDS011;19323;56.072;9.698;2022-08-19T01:53:46;5.45;;;2.97;;
32641;SDS011;19323;56.072;9.698;2022-08-19T01:56:15;4.50;;;3.65;;
32641;SDS011;19323;56.072;9.698;2022-08-19T01:58:43;5.38;;;3.20;;
32641;SDS011;19323;56.072;9.698;2022-08-19T02:01:17;4.63;;;3.67;;
32641;SDS011;19323;56.072;9.698;2022-08-19T02:03:44;3.85;;;2.95;;
32641;SDS011;19323;56.072;9.698;2022-08-19T02:06:11;4.03;;;3.63;;
32641;SDS011;19323;56.072;9.698;2022-08-19T02:08:39;3.83;;;3.42;;
32641;SDS011;19323;56.072;9.698;2022-08-19T02:11:06;4.47;;;3.00;;
32641;SDS011;19323;56.072;9.698;2022-08-19T02:13:33;3.17;;;2.88;;
32641;SDS011;19323;56.072;9.698;2022-08-19T02:16:00;3.38;;;3.00;;
32641;SDS011;19323;56.072;9.698;2022-08-19T02:18:29;3.92;;;3.45;;
32641;SDS011;19323;56.072;9.698;2022-08-19T02:20:56;3.97;;;3.58;;
32641;SDS011;19323;56.072;9.698;2022-08-19T02:23:22;5.57;;;3.30;;
32641;SDS011;19323;56.072;9.698;2022-08-19T02:25:49;4.75;;;3.83;;
32641;SDS011;19323;56.072;9.698;2022-08-19T02:28:17;5.40;;;3.92;;
32641;SDS011;19323;56.072;9.698;2022-08-19T02:30:44;4.43;;;3.50;;
32641;SDS011;19323;56.072;9.698;2022-08-19T02:33:12;4.45;;;3.58;;
32641;SDS011;19323;56.072;9.698;2022-08-19T02:35:41;4.97;;;3.90;;
32641;SDS011;19323;56.072;9.698;2022-08-19T02:38:09;3.40;;;2.88;;
32641;SDS011;19323;56.072;9.698;2022-08-19T02:40:58;3.75;;;3.45;;
32641;SDS011;19323;56.072;9.698;2022-08-19T02:43:26;4.38;;;3.97;;
32641;SDS011;19323;56.072;9.698;2022-08-19T02:45:58;3.40;;;3.00;;
32641;SDS011;19323;56.072;9.698;2022-08-19T02:48:26;5.18;;;3.58;;
32641;SDS011;19323;56.072;9.698;2022-08-19T02:50:53;4.20;;;3.72;;
32641;SDS011;19323;56.072;9.698;2022-08-19T02:53:23;3.90;;;3.35;;
32641;SDS011;19323;56.072;9.698;2022-08-19T02:55:53;5.78;;;4.13;;
32641;SDS011;19323;56.072;9.698;2022-08-19T02:58:20;4.75;;;3.35;;
32641;SDS011;19323;56.072;9.698;2022-08-19T03:00:51;4.18;;;2.80;;
32641;SDS011;19323;56.072;9.698;2022-08-19T03:03:19;3.08;;;2.67;;
32641;SDS011;19323;56.072;9.698;2022-08-19T03:05:46;4.82;;;3.65;;
32641;SDS011;19323;56.072;9.698;2022-08-19T03:08:22;3.72;;;3.42;;
32641;SDS011;19323;56.072;9.698;2022-08-19T03:10:50;4.70;;;3.63;;
32641;SDS011;19323;56.072;9.698;2022-08-19T03:13:18;3.50;;;3.20;;
32641;SDS011;19323;56.072;9.698;2022-08-19T03:15:46;3.38;;;2.90;;
32641;SDS011;19323;56.072;9.698;2022-08-19T03:18:14;6.05;;;3.58;;
32641;SDS011;19323;56.072;9.698;2022-08-19T03:20:43;3.78;;;3.47;;
32641;SDS011;19323;56.072;9.698;2022-08-19T03:23:12;4.07;;;3.45;;
32641;SDS011;19323;56.072;9.698;2022-08-19T03:25:40;3.45;;;3.05;;
32641;SDS011;19323;56.072;9.698;2022-08-19T03:28:12;3.88;;;3.50;;
32641;SDS011;19323;56.072;9.698;2022-08-19T03:30:41;4.82;;;3.17;;
32641;SDS011;19323;56.072;9.698;2022-08-19T03:33:09;4.40;;;3.10;;
32641;SDS011;19323;56.072;9.698;2022-08-19T03:35:43;3.47;;;3.17;;
32641;SDS011;19323;56.072;9.698;2022-08-19T03:38:11;4.70;;;3.70;;
32641;SDS011;19323;56.072;9.698;2022-08-19T03:40:37;3.40;;;3.10;;
32641;SDS011;19323;56.072;9.698;2022-08-19T03:43:04;5.90;;;3.30;;
32641;SDS011;19323;56.072;9.698;2022-08-19T03:45:32;5.00;;;3.03;;
32641;SDS011;19323;56.072;9.698;2022-08-19T03:47:58;5.32;;;3.28;;
32641;SDS011;19323;56.072;9.698;2022-08-19T03:50:25;4.72;;;3.35;;
32641;SDS011;19323;56.072;9.698;2022-08-19T03:52:51;7.05;;;3.72;;
32641;SDS011;19323;56.072;9.698;2022-08-19T03:55:19;3.72;;;3.15;;
32641;SDS011;19323;56.072;9.698;2022-08-19T03:57:45;9.43;;;3.35;;
32641;SDS011;19323;56.072;9.698;2022-08-19T04:00:13;6.22;;;3.60;;
32641;SDS011;19323;56.072;9.698;2022-08-19T04:02:41;3.63;;;3.17;;
32641;SDS011;19323;56.072;9.698;2022-08-19T04:05:23;5.05;;;3.97;;
32641;SDS011;19323;56.072;9.698;2022-08-19T04:07:53;5.00;;;4.18;;
32641;SDS011;19323;56.072;9.698;2022-08-19T04:10:19;4.18;;;3.17;;
32641;SDS011;19323;56.072;9.698;2022-08-19T04:12:45;5.28;;;3.72;;
32641;SDS011;19323;56.072;9.698;2022-08-19T04:15:14;5.65;;;3.33;;
32641;SDS011;19323;56.072;9.698;2022-08-19T04:17:41;6.65;;;3.50;;
32641;SDS011;19323;56.072;9.698;2022-08-19T04:20:08;8.75;;;3.72;;
32641;SDS011;19323;56.072;9.698;2022-08-19T04:22:34;7.72;;;3.63;;
32641;SDS011;19323;56.072;9.698;2022-08-19T04:25:01;10.27;;;4.25;;
32641;SDS011;19323;56.072;9.698;2022-08-19T04:27:27;8.10;;;3.50;;
32641;SDS011;19323;56.072;9.698;2022-08-19T04:29:55;4.50;;;3.30;;
32641;SDS011;19323;56.072;9.698;2022-08-19T04:32:21;7.03;;;3.28;;
32641;SDS011;19323;56.072;9.698;2022-08-19T04:34:48;9.73;;;4.72;;
32641;SDS011;19323;56.072;9.698;2022-08-19T04:37:35;9.45;;;3.72;;
32641;SDS011;19323;56.072;9.698;2022-08-19T04:40:03;8.18;;;3.88;;
32641;SDS011;19323;56.072;9.698;2022-08-19T04:42:50;5.05;;;3.10;;
32641;SDS011;19323;56.072;9.698;2022-08-19T04:45:17;7.75;;;3.50;;
32641;SDS011;19323;56.072;9.698;2022-08-19T04:47:48;5.28;;;3.13;;
32641;SDS011;19323;56.072;9.698;2022-08-19T04:50:34;5.80;;;2.85;;
32641;SDS011;19323;56.072;9.698;2022-08-19T04:53:01;5.03;;;3.08;;
32641;SDS011;19323;56.072;9.698;2022-08-19T04:55:27;19.52;;;7.50;;
32641;SDS011;19323;56.072;9.698;2022-08-19T04:57:54;16.30;;;6.70;;
32641;SDS011;19323;56.072;9.698;2022-08-19T05:00:20;13.88;;;5.20;;
32641;SDS011;19323;56.072;9.698;2022-08-19T05:02:47;12.88;;;6.43;;
32641;SDS011;19323;56.072;9.698;2022-08-19T05:05:15;14.70;;;6.22;;
32641;SDS011;19323;56.072;9.698;2022-08-19T05:07:41;10.27;;;5.63;;
32641;SDS011;19323;56.072;9.698;2022-08-19T05:10:08;12.15;;;5.70;;
32641;SDS011;19323;56.072;9.698;2022-08-19T05:12:35;10.25;;;5.63;;
32641;SDS011;19323;56.072;9.698;2022-08-19T05:15:02;12.60;;;5.53;;
32641;SDS011;19323;56.072;9.698;2022-08-19T05:17:29;10.52;;;6.03;;
32641;SDS011;19323;56.072;9.698;2022-08-19T05:20:04;12.02;;;6.00;;
32641;SDS011;19323;56.072;9.698;2022-08-19T05:22:51;12.10;;;5.93;;
32641;SDS011;19323;56.072;9.698;2022-08-19T05:25:19;19.25;;;6.50;;
32641;SDS011;19323;56.072;9.698;2022-08-19T05:27:48;10.77;;;5.95;;
32641;SDS011;19323;56.072;9.698;2022-08-19T05:30:15;14.50;;;6.03;;
32641;SDS011;19323;56.072;9.698;2022-08-19T05:32:42;10.32;;;6.30;;
32641;SDS011;19323;56.072;9.698;2022-08-19T05:35:09;12.48;;;5.68;;
32641;SDS011;19323;56.072;9.698;2022-08-19T05:37:37;18.20;;;6.68;;
32641;SDS011;19323;56.072;9.698;2022-08-19T05:40:06;15.98;;;7.43;;
32641;SDS011;19323;56.072;9.698;2022-08-19T05:42:34;14.70;;;6.35;;
32641;SDS011;19323;56.072;9.698;2022-08-19T05:45:01;15.73;;;7.25;;
32641;SDS011;19323;56.072;9.698;2022-08-19T05:47:27;12.85;;;6.82;;
32641;SDS011;19323;56.072;9.698;2022-08-19T05:49:54;18.13;;;6.68;;
32641;SDS011;19323;56.072;9.698;2022-08-19T05:52:20;9.70;;;6.20;;
32641;SDS011;19323;56.072;9.698;2022-08-19T05:54:51;13.27;;;6.07;;
32641;SDS011;19323;56.072;9.698;2022-08-19T05:57:21;14.32;;;6.10;;
32641;SDS011;19323;56.072;9.698;2022-08-19T05:59:48;12.85;;;5.47;;
32641;SDS011;19323;56.072;9.698;2022-08-19T06:02:23;10.90;;;5.63;;
32641;SDS011;19323;56.072;9.698;2022-08-19T06:04:51;7.97;;;4.55;;
32641;SDS011;19323;56.072;9.698;2022-08-19T06:07:17;10.88;;;5.03;;
32641;SDS011;19323;56.072;9.698;2022-08-19T06:09:44;8.55;;;5.85;;
32641;SDS011;19323;56.072;9.698;2022-08-19T06:12:26;8.90;;;4.78;;
32641;SDS011;19323;56.072;9.698;2022-08-19T06:14:59;7.07;;;4.60;;
32641;SDS011;19323;56.072;9.698;2022-08-19T06:17:34;8.07;;;5.35;;
32641;SDS011;19323;56.072;9.698;2022-08-19T06:20:03;7.80;;;5.00;;
32641;SDS011;19323;56.072;9.698;2022-08-19T06:22:36;9.38;;;4.78;;
32641;SDS011;19323;56.072;9.698;2022-08-19T06:25:04;12.98;;;5.32;;
32641;SDS011;19323;56.072;9.698;2022-08-19T06:27:31;10.70;;;4.45;;
32641;SDS011;19323;56.072;9.698;2022-08-19T06:29:59;8.23;;;5.20;;
32641;SDS011;19323;56.072;9.698;2022-08-19T06:32:25;9.43;;;4.75;;
32641;SDS011;19323;56.072;9.698;2022-08-19T06:34:52;7.53;;;5.00;;
32641;SDS011;19323;56.072;9.698;2022-08-19T06:37:18;11.05;;;4.47;;
32641;SDS011;19323;56.072;9.698;2022-08-19T06:39:47;6.43;;;4.18;;
32641;SDS011;19323;56.072;9.698;2022-08-19T06:42:15;6.22;;;4.40;;
32641;SDS011;19323;56.072;9.698;2022-08-19T06:44:47;6.40;;;4.28;;
32641;SDS011;19323;56.072;9.698;2022-08-19T06:47:18;5.50;;;3.58;;
32641;SDS011;19323;56.072;9.698;2022-08-19T06:49:58;6.73;;;4.37;;
32641;SDS011;19323;56.072;9.698;2022-08-19T06:52:31;6.32;;;4.50;;
32641;SDS011;19323;56.072;9.698;2022-08-19T06:55:02;4.70;;;3.97;;
32641;SDS011;19323;56.072;9.698;2022-08-19T06:57:32;4.63;;;3.42;;
32641;SDS011;19323;56.072;9.698;2022-08-19T06:59:59;6.80;;;4.00;;
32641;SDS011;19323;56.072;9.698;2022-08-19T07:02:26;8.07;;;4.53;;
32641;SDS011;19323;56.072;9.698;2022-08-19T07:04:52;6.47;;;4.00;;
32641;SDS011;19323;56.072;9.698;2022-08-19T07:07:20;6.65;;;3.92;;
32641;SDS011;19323;56.072;9.698;2022-08-19T07:09:47;4.10;;;3.70;;
32641;SDS011;19323;56.072;9.698;2022-08-19T07:12:26;9.35;;;4.10;;
32641;SDS011;19323;56.072;9.698;2022-08-19T07:14:56;6.20;;;3.60;;
32641;SDS011;19323;56.072;9.698;2022-08-19T07:17:24;4.95;;;3.15;;
32641;SDS011;19323;56.072;9.698;2022-08-19T07:19:51;5.47;;;3.28;;
32641;SDS011;19323;56.072;9.698;2022-08-19T07:22:20;4.72;;;3.63;;
32641;SDS011;19323;56.072;9.698;2022-08-19T07:24:49;3.63;;;3.17;;
32641;SDS011;19323;56.072;9.698;2022-08-19T07:27:16;4.20;;;3.80;;
32641;SDS011;19323;56.072;9.698;2022-08-19T07:29:50;5.97;;;3.72;;
32641;SDS011;19323;56.072;9.698;2022-08-19T07:32:22;3.38;;;3.05;;
32641;SDS011;19323;56.072;9.698;2022-08-19T07:34:50;5.95;;;3.03;;
32641;SDS011;19323;56.072;9.698;2022-08-19T07:37:17;4.95;;;3.13;;
32641;SDS011;19323;56.072;9.698;2022-08-19T07:39:43;4.13;;;2.95;;
32641;SDS011;19323;56.072;9.698;2022-08-19T07:42:10;2.92;;;2.22;;
32641;SDS011;19323;56.072;9.698;2022-08-19T07:44:39;5.45;;;2.53;;
32641;SDS011;19323;56.072;9.698;2022-08-19T07:47:06;3.95;;;2.75;;
32641;SDS011;19323;56.072;9.698;2022-08-19T07:49:53;5.30;;;3.38;;
32641;SDS011;19323;56.072;9.698;2022-08-19T07:52:20;4.68;;;3.00;;
32641;SDS011;19323;56.072;9.698;2022-08-19T07:54:46;3.60;;;2.33;;
32641;SDS011;19323;56.072;9.698;2022-08-19T07:57:13;4.85;;;2.95;;
32641;SDS011;19323;56.072;9.698;2022-08-19T07:59:39;5.13;;;2.70;;
32641;SDS011;19323;56.072;9.698;2022-08-19T08:02:06;5.13;;;2.80;;
32641;SDS011;19323;56.072;9.698;2022-08-19T08:04:34;4.78;;;3.05;;
32641;SDS011;19323;56.072;9.698;2022-08-19T08:07:19;4.97;;;2.97;;
32641;SDS011;19323;56.072;9.698;2022-08-19T08:10:11;2.70;;;2.35;;
32641;SDS011;19323;56.072;9.698;2022-08-19T08:12:46;3.97;;;2.72;;
32641;SDS011;19323;56.072;9.698;2022-08-19T08:15:33;2.72;;;2.47;;
32641;SDS011;19323;56.072;9.698;2022-08-19T08:18:07;4.22;;;2.80;;
32641;SDS011;19323;56.072;9.698;2022-08-19T08:20:34;3.38;;;2.72;;
32641;SDS011;19323;56.072;9.698;2022-08-19T08:23:01;4.32;;;2.33;;
32641;SDS011;19323;56.072;9.698;2022-08-19T08:25:46;4.65;;;3.03;;
32641;SDS011;19323;56.072;9.698;2022-08-19T08:28:15;3.17;;;2.60;;
32641;SDS011;19323;56.072;9.698;2022-08-19T08:30:43;4.03;;;2.78;;
32641;SDS011;19323;56.072;9.698;2022-08-19T08:33:12;4.65;;;2.70;;
32641;SDS011;19323;56.072;9.698;2022-08-19T08:35:45;2.80;;;2.47;;
32641;SDS011;19323;56.072;9.698;2022-08-19T08:38:12;3.28;;;2.50;;
32641;SDS011;19323;56.072;9.698;2022-08-19T08:46:09;3.05;;;2.55;;
32641;SDS011;19323;56.072;9.698;2022-08-19T08:49:00;3.20;;;2.58;;
32641;SDS011;19323;56.072;9.698;2022-08-19T08:51:48;2.28;;;2.08;;
32641;SDS011;19323;56.072;9.698;2022-08-19T08:54:27;2.83;;;2.55;;
32641;SDS011;19323;56.072;9.698;2022-08-19T08:57:02;3.33;;;3.03;;
32641;SDS011;19323;56.072;9.698;2022-08-19T08:59:34;6.63;;;3.33;;
32641;SDS011;19323;56.072;9.698;2022-08-19T09:02:05;3.13;;;2.50;;
32641;SDS011;19323;56.072;9.698;2022-08-19T09:04:31;2.60;;;2.40;;
32641;SDS011;19323;56.072;9.698;2022-08-19T09:07:09;3.10;;;2.70;;
32641;SDS011;19323;56.072;9.698;2022-08-19T09:10:04;2.83;;;2.08;;
32641;SDS011;19323;56.072;9.698;2022-08-19T09:12:58;3.08;;;2.17;;
32641;SDS011;19323;56.072;9.698;2022-08-19T09:15:36;2.88;;;2.50;;
32641;SDS011;19323;56.072;9.698;2022-08-19T09:18:08;2.75;;;2.40;;
32641;SDS011;19323;56.072;9.698;2022-08-19T09:20:44;2.17;;;2.00;;
32641;SDS011;19323;56.072;9.698;2022-08-19T09:23:13;2.20;;;2.00;;
32641;SDS011;19323;56.072;9.698;2022-08-19T09:25:40;2.22;;;2.00;;
32641;SDS011;19323;56.072;9.698;2022-08-19T09:28:06;2.75;;;2.20;;
32641;SDS011;19323;56.072;9.698;2022-08-19T09:30:48;2.83;;;2.22;;
32641;SDS011;19323;56.072;9.698;2022-08-19T09:33:18;2.50;;;2.30;;
32641;SDS011;19323;56.072;9.698;2022-08-19T09:35:45;2.35;;;2.17;;
32641;SDS011;19323;56.072;9.698;2022-08-19T09:38:18;2.63;;;2.42;;
32641;SDS011;19323;56.072;9.698;2022-08-19T09:40:45;2.35;;;1.90;;
32641;SDS011;19323;56.072;9.698;2022-08-19T09:43:11;2.50;;;2.30;;
32641;SDS011;19323;56.072;9.698;2022-08-19T09:45:39;2.15;;;1.90;;
32641;SDS011;19323;56.072;9.698;2022-08-19T09:48:05;1.92;;;1.75;;
32641;SDS011;19323;56.072;9.698;2022-08-19T09:50:32;2.38;;;2.17;;
32641;SDS011;19323;56.072;9.698;2022-08-19T09:53:00;2.83;;;2.63;;
32641;SDS011;19323;56.072;9.698;2022-08-19T09:55:26;2.17;;;1.95;;
32641;SDS011;19323;56.072;9.698;2022-08-19T09:57:57;2.72;;;2.47;;
32641;SDS011;19323;56.072;9.698;2022-08-19T10:00:27;2.53;;;2.33;;
32641;SDS011;19323;56.072;9.698;2022-08-19T10:02:54;2.17;;;1.98;;
32641;SDS011;19323;56.072;9.698;2022-08-19T10:05:20;2.33;;;2.13;;
32641;SDS011;19323;56.072;9.698;2022-08-19T10:08:07;2.65;;;1.92;;
32641;SDS011;19323;56.072;9.698;2022-08-19T10:10:39;2.60;;;2.40;;
32641;SDS011;19323;56.072;9.698;2022-08-19T10:13:12;1.98;;;1.88;;
32641;SDS011;19323;56.072;9.698;2022-08-19T10:15:40;2.25;;;2.05;;
32641;SDS011;19323;56.072;9.698;2022-08-19T10:18:13;2.53;;;2.33;;
32641;SDS011;19323;56.072;9.698;2022-08-19T10:20:40;2.15;;;1.95;;
32641;SDS011;19323;56.072;9.698;2022-08-19T10:23:08;1.90;;;1.80;;
32641;SDS011;19323;56.072;9.698;2022-08-19T10:25:35;1.98;;;1.88;;
32641;SDS011;19323;56.072;9.698;2022-08-19T10:28:03;2.08;;;1.98;;
32641;SDS011;19323;56.072;9.698;2022-08-19T10:30:35;2.60;;;2.10;;
32641;SDS011;19323;56.072;9.698;2022-08-19T10:33:03;2.25;;;2.00;;
32641;SDS011;19323;56.072;9.698;2022-08-19T10:35:36;2.30;;;2.10;;
32641;SDS011;19323;56.072;9.698;2022-08-19T10:38:21;1.92;;;1.80;;
32641;SDS011;19323;56.072;9.698;2022-08-19T10:40:57;2.38;;;2.17;;
32641;SDS011;19323;56.072;9.698;2022-08-19T10:43:24;2.63;;;2.30;;
32641;SDS011;19323;56.072;9.698;2022-08-19T10:45:54;2.22;;;2.03;;
32641;SDS011;19323;56.072;9.698;2022-08-19T10:48:25;2.42;;;2.22;;
32641;SDS011;19323;56.072;9.698;2022-08-19T10:50:52;2.20;;;2.00;;
32641;SDS011;19323;56.072;9.698;2022-08-19T10:53:51;2.50;;;2.30;;
32641;SDS011;19323;56.072;9.698;2022-08-19T10:56:18;2.00;;;1.90;;
32641;SDS011;19323;56.072;9.698;2022-08-19T10:59:03;2.22;;;2.10;;
32641;SDS011;19323;56.072;9.698;2022-08-19T11:01:31;2.25;;;2.05;;
32641;SDS011;19323;56.072;9.698;2022-08-19T11:04:00;1.80;;;1.70;;
32641;SDS011;19323;56.072;9.698;2022-08-19T11:06:29;2.00;;;1.90;;
32641;SDS011;19323;56.072;9.698;2022-08-19T11:08:58;2.25;;;2.05;;
32641;SDS011;19323;56.072;9.698;2022-08-19T11:11:26;2.25;;;2.00;;
32641;SDS011;19323;56.072;9.698;2022-08-19T11:13:54;2.45;;;2.25;;
32641;SDS011;19323;56.072;9.698;2022-08-19T11:16:22;2.30;;;2.10;;
32641;SDS011;19323;56.072;9.698;2022-08-19T11:18:53;1.88;;;1.77;;
32641;SDS011;19323;56.072;9.698;2022-08-19T11:21:22;2.17;;;1.98;;
32641;SDS011;19323;56.072;9.698;2022-08-19T11:23:51;2.38;;;2.17;;
32641;SDS011;19323;56.072;9.698;2022-08-19T11:26:21;2.40;;;2.22;;
32641;SDS011;19323;56.072;9.698;2022-08-19T11:28:48;2.20;;;2.00;;
32641;SDS011;19323;56.072;9.698;2022-08-19T11:31:20;3.08;;;1.95;;
32641;SDS011;19323;56.072;9.698;2022-08-19T11:33:55;2.00;;;1.90;;
32641;SDS011;19323;56.072;9.698;2022-08-19T11:36:23;2.38;;;2.20;;
32641;SDS011;19323;56.072;9.698;2022-08-19T11:38:50;2.30;;;2.10;;
32641;SDS011;19323;56.072;9.698;2022-08-19T11:41:17;2.20;;;2.00;;
32641;SDS011;19323;56.072;9.698;2022-08-19T11:43:46;1.73;;;1.63;;
32641;SDS011;19323;56.072;9.698;2022-08-19T11:46:16;2.33;;;2.13;;
32641;SDS011;19323;56.072;9.698;2022-08-19T11:48:43;2.13;;;2.03;;
32641;SDS011;19323;56.072;9.698;2022-08-19T11:51:12;2.75;;;2.35;;
32641;SDS011;19323;56.072;9.698;2022-08-19T11:53:40;2.35;;;2.15;;
32641;SDS011;19323;56.072;9.698;2022-08-19T11:56:07;2.30;;;2.10;;
32641;SDS011;19323;56.072;9.698;2022-08-19T11:58:35;3.53;;;2.40;;
32641;SDS011;19323;56.072;9.698;2022-08-19T12:01:05;2.85;;;2.42;;
32641;SDS011;19323;56.072;9.698;2022-08-19T12:03:33;2.80;;;2.60;;
32641;SDS011;19323;56.072;9.698;2022-08-19T12:06:06;3.13;;;2.80;;
32641;SDS011;19323;56.072;9.698;2022-08-19T12:08:35;2.80;;;2.60;;
32641;SDS011;19323;56.072;9.698;2022-08-19T12:11:02;3.20;;;2.90;;
32641;SDS011;19323;56.072;9.698;2022-08-19T12:13:29;2.53;;;2.33;;
32641;SDS011;19323;56.072;9.698;2022-08-19T12:15:57;2.70;;;2.45;;
32641;SDS011;19323;56.072;9.698;2022-08-19T12:18:24;2.45;;;2.30;;
32641;SDS011;19323;56.072;9.698;2022-08-19T12:20:51;2.70;;;2.50;;
32641;SDS011;19323;56.072;9.698;2022-08-19T12:23:20;2.30;;;2.20;;
32641;SDS011;19323;56.072;9.698;2022-08-19T12:25:47;3.50;;;3.20;;
32641;SDS011;19323;56.072;9.698;2022-08-19T12:28:21;7.95;;;3.05;;
32641;SDS011;19323;56.072;9.698;2022-08-19T12:30:49;3.72;;;3.45;;
32641;SDS011;19323;56.072;9.698;2022-08-19T12:33:19;4.65;;;4.25;;
32641;SDS011;19323;56.072;9.698;2022-08-19T12:35:50;4.82;;;3.60;;
32641;SDS011;19323;56.072;9.698;2022-08-19T12:38:17;4.22;;;3.30;;
32641;SDS011;19323;56.072;9.698;2022-08-19T12:40:47;10.88;;;4.28;;
32641;SDS011;19323;56.072;9.698;2022-08-19T12:43:15;5.10;;;3.50;;
32641;SDS011;19323;56.072;9.698;2022-08-19T12:45:42;4.05;;;3.72;;
32641;SDS011;19323;56.072;9.698;2022-08-19T12:48:08;4.85;;;3.40;;
32641;SDS011;19323;56.072;9.698;2022-08-19T12:50:55;6.63;;;4.70;;
32641;SDS011;19323;56.072;9.698;2022-08-19T12:53:23;5.10;;;4.60;;
32641;SDS011;19323;56.072;9.698;2022-08-19T12:55:56;4.53;;;4.13;;
32641;SDS011;19323;56.072;9.698;2022-08-19T12:58:24;5.10;;;4.28;;
32641;SDS011;19323;56.072;9.698;2022-08-19T13:00:52;4.15;;;3.85;;
32641;SDS011;19323;56.072;9.698;2022-08-19T13:03:19;5.05;;;3.53;;
32641;SDS011;19323;56.072;9.698;2022-08-19T13:05:45;4.35;;;3.95;;
32641;SDS011;19323;56.072;9.698;2022-08-19T13:08:12;4.60;;;3.70;;
32641;SDS011;19323;56.072;9.698;2022-08-19T13:10:38;4.65;;;4.30;;
32641;SDS011;19323;56.072;9.698;2022-08-19T13:13:06;5.20;;;4.18;;
32641;SDS011;19323;56.072;9.698;2022-08-19T13:15:37;6.13;;;4.47;;
32641;SDS011;19323;56.072;9.698;2022-08-19T13:18:06;9.20;;;4.35;;
32641;SDS011;19323;56.072;9.698;2022-08-19T13:20:35;6.88;;;4.43;;
32641;SDS011;19323;56.072;9.698;2022-08-19T13:23:03;4.60;;;3.80;;
32641;SDS011;19323;56.072;9.698;2022-08-19T13:25:30;4.95;;;3.67;;
32641;SDS011;19323;56.072;9.698;2022-08-19T13:27:57;4.50;;;4.10;;
32641;SDS011;19323;56.072;9.698;2022-08-19T13:30:25;4.78;;;4.45;;
32641;SDS011;19323;56.072;9.698;2022-08-19T13:33:10;4.45;;;4.05;;
32641;SDS011;19323;56.072;9.698;2022-08-19T13:35:37;5.28;;;4.88;;
32641;SDS011;19323;56.072;9.698;2022-08-19T13:38:05;4.93;;;4.45;;
32641;SDS011;19323;56.072;9.698;2022-08-19T13:40:37;6.82;;;4.50;;
32641;SDS011;19323;56.072;9.698;2022-08-19T13:43:06;4.80;;;4.40;;
32641;SDS011;19323;56.072;9.698;2022-08-19T13:45:52;4.50;;;4.13;;
32641;SDS011;19323;56.072;9.698;2022-08-19T13:48:22;6.55;;;4.00;;
32641;SDS011;19323;56.072;9.698;2022-08-19T13:50:49;14.25;;;5.00;;
32641;SDS011;19323;56.072;9.698;2022-08-19T13:53:16;7.28;;;4.65;;
32641;SDS011;19323;56.072;9.698;2022-08-19T13:55:43;4.68;;;4.15;;
32641;SDS011;19323;56.072;9.698;2022-08-19T13:58:10;5.38;;;4.57;;
32641;SDS011;19323;56.072;9.698;2022-08-19T14:00:39;4.85;;;4.55;;
32641;SDS011;19323;56.072;9.698;2022-08-19T14:03:08;4.60;;;4.20;;
32641;SDS011;19323;56.072;9.698;2022-08-19T14:05:35;5.35;;;4.45;;
32641;SDS011;19323;56.072;9.698;2022-08-19T14:08:02;4.30;;;3.95;;
32641;SDS011;19323;56.072;9.698;2022-08-19T14:10:29;4.45;;;3.88;;
32641;SDS011;19323;56.072;9.698;2022-08-19T14:12:58;6.32;;;4.50;;
32641;SDS011;19323;56.072;9.698;2022-08-19T14:15:27;4.97;;;4.20;;
32641;SDS011;19323;56.072;9.698;2022-08-19T14:17:55;5.75;;;4.65;;
32641;SDS011;19323;56.072;9.698;2022-08-19T14:20:22;4.57;;;4.20;;
32641;SDS011;19323;56.072;9.698;2022-08-19T14:22:51;5.13;;;4.72;;
32641;SDS011;19323;56.072;9.698;2022-08-19T14:25:20;8.50;;;4.65;;
32641;SDS011;19323;56.072;9.698;2022-08-19T14:27:51;5.53;;;4.68;;
32641;SDS011;19323;56.072;9.698;2022-08-19T14:30:19;5.55;;;4.38;;
32641;SDS011;19323;56.072;9.698;2022-08-19T14:32:48;4.78;;;4.38;;
32641;SDS011;19323;56.072;9.698;2022-08-19T14:35:15;4.68;;;4.03;;
32641;SDS011;19323;56.072;9.698;2022-08-19T14:37:42;3.92;;;3.53;;
32641;SDS011;19323;56.072;9.698;2022-08-19T14:40:12;4.22;;;3.83;;
32641;SDS011;19323;56.072;9.698;2022-08-19T14:42:41;4.70;;;3.33;;
32641;SDS011;19323;56.072;9.698;2022-08-19T14:45:08;4.47;;;4.18;;
32641;SDS011;19323;56.072;9.698;2022-08-19T14:47:36;3.83;;;3.53;;
32641;SDS011;19323;56.072;9.698;2022-08-19T14:50:15;5.95;;;3.65;;
32641;SDS011;19323;56.072;9.698;2022-08-19T14:52:44;3.90;;;3.60;;
32641;SDS011;19323;56.072;9.698;2022-08-19T14:55:15;4.55;;;3.92;;
32641;SDS011;19323;56.072;9.698;2022-08-19T14:57:43;4.80;;;3.55;;
32641;SDS011;19323;56.072;9.698;2022-08-19T15:00:10;3.60;;;3.30;;
32641;SDS011;19323;56.072;9.698;2022-08-19T15:02:39;5.97;;;3.40;;
32641;SDS011;19323;56.072;9.698;2022-08-19T15:05:06;4.45;;;4.00;;
32641;SDS011;19323;56.072;9.698;2022-08-19T15:07:33;4.20;;;3.90;;
32641;SDS011;19323;56.072;9.698;2022-08-19T15:10:00;3.85;;;3.50;;